sensor_id;sensor_type;location;lat;lon;timestamp;P1;durP1;ratioP1;P2;durP2;ratioP2
17618;SDS011;8928;51.678;6.074;2023-11-19T00:02:16;26.77;;;13.43;;
17618;SDS011;8928;51.678;6.074;2023-11-19T00:05:05;22.13;;;13.00;;
17618;SDS011;8928;51.678;6.074;2023-11-19T00:07:54;23.07;;;12.70;;
17618;SDS011;8928;51.678;6.074;2023-11-19T00:10:41;26.50;;;12.60;;
17618;SDS011;8928;51.678;6.074;2023-11-19T00:13:28;22.63;;;12.30;;
17618;SDS011;8928;51.678;6.074;2023-11-19T00:16:15;26.83;;;12.73;;
17618;SDS011;8928;51.678;6.074;2023-11-19T00:19:03;22.70;;;11.33;;
17618;SDS011;8928;51.678;6.074;2023-11-19T00:21:52;23.33;;;12.13;;
17618;SDS011;8928;51.678;6.074;2023-11-19T00:24:39;21.03;;;11.53;;
17618;SDS011;8928;51.678;6.074;2023-11-19T00:27:27;23.53;;;12.30;;
17618;SDS011;8928;51.678;6.074;2023-11-19T00:30:14;26.73;;;12.17;;
17618;SDS011;8928;51.678;6.074;2023-11-19T00:33:02;24.37;;;12.13;;
17618;SDS011;8928;51.678;6.074;2023-11-19T00:35:49;24.90;;;13.13;;
17618;SDS011;8928;51.678;6.074;2023-11-19T00:38:37;22.40;;;12.43;;
17618;SDS011;8928;51.678;6.074;2023-11-19T00:41:24;25.77;;;12.87;;
17618;SDS011;8928;51.678;6.074;2023-11-19T00:44:12;27.30;;;12.97;;
17618;SDS011;8928;51.678;6.074;2023-11-19T00:46:59;21.27;;;12.23;;
17618;SDS011;8928;51.678;6.074;2023-11-19T00:49:46;24.53;;;12.30;;
17618;SDS011;8928;51.678;6.074;2023-11-19T00:52:35;23.30;;;11.90;;
17618;SDS011;8928;51.678;6.074;2023-11-19T00:55:23;26.37;;;12.53;;
17618;SDS011;8928;51.678;6.074;2023-11-19T00:58:10;26.07;;;11.57;;
17618;SDS011;8928;51.678;6.074;2023-11-19T01:00:57;29.70;;;11.87;;
17618;SDS011;8928;51.678;6.074;2023-11-19T01:03:45;24.87;;;10.53;;
17618;SDS011;8928;51.678;6.074;2023-11-19T01:06:32;21.30;;;9.93;;
17618;SDS011;8928;51.678;6.074;2023-11-19T01:09:19;28.20;;;10.47;;
17618;SDS011;8928;51.678;6.074;2023-11-19T01:12:08;24.70;;;10.43;;
17618;SDS011;8928;51.678;6.074;2023-11-19T01:14:55;23.90;;;10.43;;
17618;SDS011;8928;51.678;6.074;2023-11-19T01:17:43;24.87;;;10.80;;
17618;SDS011;8928;51.678;6.074;2023-11-19T01:20:30;27.57;;;9.70;;
17618;SDS011;8928;51.678;6.074;2023-11-19T01:23:19;30.90;;;10.87;;
17618;SDS011;8928;51.678;6.074;2023-11-19T01:26:06;27.47;;;10.00;;
17618;SDS011;8928;51.678;6.074;2023-11-19T01:28:56;25.13;;;9.60;;
17618;SDS011;8928;51.678;6.074;2023-11-19T01:31:45;27.73;;;9.20;;
17618;SDS011;8928;51.678;6.074;2023-11-19T01:34:32;21.43;;;7.67;;
17618;SDS011;8928;51.678;6.074;2023-11-19T01:37:20;22.43;;;7.70;;
17618;SDS011;8928;51.678;6.074;2023-11-19T01:40:07;29.57;;;8.30;;
17618;SDS011;8928;51.678;6.074;2023-11-19T01:42:56;20.47;;;8.03;;
17618;SDS011;8928;51.678;6.074;2023-11-19T01:45:45;28.97;;;7.53;;
17618;SDS011;8928;51.678;6.074;2023-11-19T01:48:32;23.20;;;7.00;;
17618;SDS011;8928;51.678;6.074;2023-11-19T01:51:21;23.80;;;7.00;;
17618;SDS011;8928;51.678;6.074;2023-11-19T01:54:09;31.50;;;7.00;;
17618;SDS011;8928;51.678;6.074;2023-11-19T01:56:56;30.33;;;6.90;;
17618;SDS011;8928;51.678;6.074;2023-11-19T01:59:44;29.00;;;6.97;;
17618;SDS011;8928;51.678;6.074;2023-11-19T02:02:32;22.07;;;6.20;;
17618;SDS011;8928;51.678;6.074;2023-11-19T02:05:19;20.87;;;5.80;;
17618;SDS011;8928;51.678;6.074;2023-11-19T02:08:08;18.93;;;6.50;;
17618;SDS011;8928;51.678;6.074;2023-11-19T02:10:55;25.30;;;6.10;;
17618;SDS011;8928;51.678;6.074;2023-11-19T02:13:43;26.03;;;6.27;;
17618;SDS011;8928;51.678;6.074;2023-11-19T02:16:30;23.87;;;6.10;;
17618;SDS011;8928;51.678;6.074;2023-11-19T02:19:20;24.37;;;5.77;;
17618;SDS011;8928;51.678;6.074;2023-11-19T02:22:07;26.87;;;6.13;;
17618;SDS011;8928;51.678;6.074;2023-11-19T02:24:55;30.07;;;6.07;;
17618;SDS011;8928;51.678;6.074;2023-11-19T02:27:48;27.33;;;5.40;;
17618;SDS011;8928;51.678;6.074;2023-11-19T02:30:40;26.53;;;5.73;;
17618;SDS011;8928;51.678;6.074;2023-11-19T02:33:27;26.87;;;6.03;;
17618;SDS011;8928;51.678;6.074;2023-11-19T02:36:14;27.77;;;6.10;;
17618;SDS011;8928;51.678;6.074;2023-11-19T02:39:02;36.37;;;5.70;;
17618;SDS011;8928;51.678;6.074;2023-11-19T02:41:55;31.80;;;5.50;;
17618;SDS011;8928;51.678;6.074;2023-11-19T02:44:45;29.83;;;5.13;;
17618;SDS011;8928;51.678;6.074;2023-11-19T02:47:33;22.03;;;4.97;;
17618;SDS011;8928;51.678;6.074;2023-11-19T02:50:21;24.80;;;4.80;;
17618;SDS011;8928;51.678;6.074;2023-11-19T02:53:11;24.17;;;4.60;;
17618;SDS011;8928;51.678;6.074;2023-11-19T02:55:58;31.63;;;5.60;;
17618;SDS011;8928;51.678;6.074;2023-11-19T02:58:54;28.63;;;5.37;;
17618;SDS011;8928;51.678;6.074;2023-11-19T03:01:43;27.20;;;5.13;;
17618;SDS011;8928;51.678;6.074;2023-11-19T03:04:35;23.60;;;5.47;;
17618;SDS011;8928;51.678;6.074;2023-11-19T03:07:23;41.93;;;6.03;;
17618;SDS011;8928;51.678;6.074;2023-11-19T03:10:11;29.63;;;6.00;;
17618;SDS011;8928;51.678;6.074;2023-11-19T03:12:59;31.57;;;6.00;;
17618;SDS011;8928;51.678;6.074;2023-11-19T03:15:47;30.77;;;6.40;;
17618;SDS011;8928;51.678;6.074;2023-11-19T03:18:35;37.27;;;7.17;;
17618;SDS011;8928;51.678;6.074;2023-11-19T03:21:27;27.93;;;6.00;;
17618;SDS011;8928;51.678;6.074;2023-11-19T03:24:14;32.27;;;6.37;;
17618;SDS011;8928;51.678;6.074;2023-11-19T03:27:02;38.53;;;6.67;;
17618;SDS011;8928;51.678;6.074;2023-11-19T03:29:50;36.57;;;6.73;;
17618;SDS011;8928;51.678;6.074;2023-11-19T03:32:37;40.90;;;6.73;;
17618;SDS011;8928;51.678;6.074;2023-11-19T03:35:26;33.13;;;6.30;;
17618;SDS011;8928;51.678;6.074;2023-11-19T03:38:13;33.83;;;6.00;;
17618;SDS011;8928;51.678;6.074;2023-11-19T03:41:00;35.20;;;5.30;;
17618;SDS011;8928;51.678;6.074;2023-11-19T03:43:49;30.90;;;5.10;;
17618;SDS011;8928;51.678;6.074;2023-11-19T03:46:36;36.33;;;5.67;;
17618;SDS011;8928;51.678;6.074;2023-11-19T03:49:22;32.43;;;5.93;;
17618;SDS011;8928;51.678;6.074;2023-11-19T03:52:11;37.00;;;5.50;;
17618;SDS011;8928;51.678;6.074;2023-11-19T03:54:58;40.33;;;6.90;;
17618;SDS011;8928;51.678;6.074;2023-11-19T03:57:45;33.67;;;5.73;;
17618;SDS011;8928;51.678;6.074;2023-11-19T04:00:34;40.37;;;5.83;;
17618;SDS011;8928;51.678;6.074;2023-11-19T04:03:21;39.47;;;6.17;;
17618;SDS011;8928;51.678;6.074;2023-11-19T04:06:08;34.53;;;6.40;;
17618;SDS011;8928;51.678;6.074;2023-11-19T04:08:56;33.60;;;5.17;;
17618;SDS011;8928;51.678;6.074;2023-11-19T04:11:43;32.13;;;4.73;;
17618;SDS011;8928;51.678;6.074;2023-11-19T04:14:32;33.17;;;4.87;;
17618;SDS011;8928;51.678;6.074;2023-11-19T04:17:19;35.07;;;4.57;;
17618;SDS011;8928;51.678;6.074;2023-11-19T04:20:06;44.40;;;5.07;;
17618;SDS011;8928;51.678;6.074;2023-11-19T04:22:57;43.73;;;4.87;;
17618;SDS011;8928;51.678;6.074;2023-11-19T04:25:47;40.87;;;5.17;;
17618;SDS011;8928;51.678;6.074;2023-11-19T04:28:34;32.93;;;4.53;;
17618;SDS011;8928;51.678;6.074;2023-11-19T04:31:21;41.57;;;5.10;;
17618;SDS011;8928;51.678;6.074;2023-11-19T04:34:08;46.77;;;4.50;;
17618;SDS011;8928;51.678;6.074;2023-11-19T04:36:56;35.27;;;4.73;;
17618;SDS011;8928;51.678;6.074;2023-11-19T04:39:44;35.97;;;4.60;;
17618;SDS011;8928;51.678;6.074;2023-11-19T04:42:32;42.57;;;5.10;;
17618;SDS011;8928;51.678;6.074;2023-11-19T04:45:19;33.43;;;4.90;;
17618;SDS011;8928;51.678;6.074;2023-11-19T04:48:06;38.10;;;4.60;;
17618;SDS011;8928;51.678;6.074;2023-11-19T04:50:54;48.47;;;5.13;;
17618;SDS011;8928;51.678;6.074;2023-11-19T04:53:41;43.50;;;5.07;;
17618;SDS011;8928;51.678;6.074;2023-11-19T04:56:28;45.73;;;5.30;;
17618;SDS011;8928;51.678;6.074;2023-11-19T04:59:17;46.13;;;5.47;;
17618;SDS011;8928;51.678;6.074;2023-11-19T05:02:04;43.37;;;5.60;;
17618;SDS011;8928;51.678;6.074;2023-11-19T05:04:51;41.10;;;4.77;;
17618;SDS011;8928;51.678;6.074;2023-11-19T05:07:38;43.00;;;4.93;;
17618;SDS011;8928;51.678;6.074;2023-11-19T05:10:25;43.23;;;5.30;;
17618;SDS011;8928;51.678;6.074;2023-11-19T05:13:12;39.50;;;5.10;;
17618;SDS011;8928;51.678;6.074;2023-11-19T05:16:01;50.67;;;5.40;;
17618;SDS011;8928;51.678;6.074;2023-11-19T05:18:49;39.87;;;5.73;;
17618;SDS011;8928;51.678;6.074;2023-11-19T05:21:36;44.90;;;5.73;;
17618;SDS011;8928;51.678;6.074;2023-11-19T05:24:23;44.13;;;5.47;;
17618;SDS011;8928;51.678;6.074;2023-11-19T05:27:10;46.47;;;5.17;;
17618;SDS011;8928;51.678;6.074;2023-11-19T05:29:58;57.03;;;6.13;;
17618;SDS011;8928;51.678;6.074;2023-11-19T05:32:47;45.43;;;6.30;;
17618;SDS011;8928;51.678;6.074;2023-11-19T05:35:34;41.47;;;5.20;;
17618;SDS011;8928;51.678;6.074;2023-11-19T05:38:21;47.83;;;5.63;;
17618;SDS011;8928;51.678;6.074;2023-11-19T05:41:08;43.60;;;5.47;;
17618;SDS011;8928;51.678;6.074;2023-11-19T05:43:55;48.50;;;5.70;;
17618;SDS011;8928;51.678;6.074;2023-11-19T05:46:42;40.53;;;5.33;;
17618;SDS011;8928;51.678;6.074;2023-11-19T05:49:31;44.07;;;5.67;;
17618;SDS011;8928;51.678;6.074;2023-11-19T05:52:18;41.37;;;5.57;;
17618;SDS011;8928;51.678;6.074;2023-11-19T05:55:07;41.77;;;5.30;;
17618;SDS011;8928;51.678;6.074;2023-11-19T05:57:55;42.83;;;5.10;;
17618;SDS011;8928;51.678;6.074;2023-11-19T06:00:42;43.07;;;5.33;;
17618;SDS011;8928;51.678;6.074;2023-11-19T06:03:29;40.50;;;5.37;;
17618;SDS011;8928;51.678;6.074;2023-11-19T06:06:18;44.90;;;5.83;;
17618;SDS011;8928;51.678;6.074;2023-11-19T06:09:05;35.77;;;5.07;;
17618;SDS011;8928;51.678;6.074;2023-11-19T06:11:52;40.00;;;5.17;;
17618;SDS011;8928;51.678;6.074;2023-11-19T06:14:42;37.93;;;4.83;;
17618;SDS011;8928;51.678;6.074;2023-11-19T06:17:29;46.43;;;4.50;;
17618;SDS011;8928;51.678;6.074;2023-11-19T06:20:16;45.50;;;5.40;;
17618;SDS011;8928;51.678;6.074;2023-11-19T06:23:06;42.57;;;5.53;;
17618;SDS011;8928;51.678;6.074;2023-11-19T06:25:54;37.90;;;4.43;;
17618;SDS011;8928;51.678;6.074;2023-11-19T06:28:41;40.43;;;5.23;;
17618;SDS011;8928;51.678;6.074;2023-11-19T06:31:28;41.97;;;5.40;;
17618;SDS011;8928;51.678;6.074;2023-11-19T06:34:15;49.07;;;5.20;;
17618;SDS011;8928;51.678;6.074;2023-11-19T06:37:02;49.73;;;5.20;;
17618;SDS011;8928;51.678;6.074;2023-11-19T06:39:50;41.57;;;4.87;;
17618;SDS011;8928;51.678;6.074;2023-11-19T06:42:38;44.27;;;5.27;;
17618;SDS011;8928;51.678;6.074;2023-11-19T06:45:25;45.37;;;4.70;;
17618;SDS011;8928;51.678;6.074;2023-11-19T06:48:12;54.00;;;5.83;;
17618;SDS011;8928;51.678;6.074;2023-11-19T06:50:59;39.90;;;4.87;;
17618;SDS011;8928;51.678;6.074;2023-11-19T06:53:46;48.50;;;5.50;;
17618;SDS011;8928;51.678;6.074;2023-11-19T06:56:34;48.27;;;5.13;;
17618;SDS011;8928;51.678;6.074;2023-11-19T06:59:22;52.50;;;5.43;;
17618;SDS011;8928;51.678;6.074;2023-11-19T07:02:09;39.20;;;4.63;;
17618;SDS011;8928;51.678;6.074;2023-11-19T07:04:56;52.57;;;5.20;;
17618;SDS011;8928;51.678;6.074;2023-11-19T07:07:43;50.07;;;5.23;;
17618;SDS011;8928;51.678;6.074;2023-11-19T07:10:32;42.00;;;5.13;;
17618;SDS011;8928;51.678;6.074;2023-11-19T07:13:20;53.20;;;5.70;;
17618;SDS011;8928;51.678;6.074;2023-11-19T07:16:07;47.50;;;4.83;;
17618;SDS011;8928;51.678;6.074;2023-11-19T07:18:56;46.50;;;5.13;;
17618;SDS011;8928;51.678;6.074;2023-11-19T07:21:44;45.00;;;5.53;;
17618;SDS011;8928;51.678;6.074;2023-11-19T07:24:31;53.40;;;5.13;;
17618;SDS011;8928;51.678;6.074;2023-11-19T07:27:18;45.43;;;5.17;;
17618;SDS011;8928;51.678;6.074;2023-11-19T07:30:07;47.93;;;5.37;;
17618;SDS011;8928;51.678;6.074;2023-11-19T07:32:54;39.27;;;4.97;;
17618;SDS011;8928;51.678;6.074;2023-11-19T07:35:42;43.47;;;4.63;;
17618;SDS011;8928;51.678;6.074;2023-11-19T07:38:29;44.90;;;4.83;;
17618;SDS011;8928;51.678;6.074;2023-11-19T07:41:16;48.03;;;4.60;;
17618;SDS011;8928;51.678;6.074;2023-11-19T07:44:05;45.30;;;4.83;;
17618;SDS011;8928;51.678;6.074;2023-11-19T07:46:54;43.00;;;4.57;;
17618;SDS011;8928;51.678;6.074;2023-11-19T07:49:41;42.60;;;5.03;;
17618;SDS011;8928;51.678;6.074;2023-11-19T07:52:29;46.93;;;4.80;;
17618;SDS011;8928;51.678;6.074;2023-11-19T07:55:16;44.47;;;4.97;;
17618;SDS011;8928;51.678;6.074;2023-11-19T07:58:03;43.87;;;5.57;;
17618;SDS011;8928;51.678;6.074;2023-11-19T08:00:50;39.03;;;5.17;;
17618;SDS011;8928;51.678;6.074;2023-11-19T08:03:38;48.23;;;5.37;;
17618;SDS011;8928;51.678;6.074;2023-11-19T08:06:25;42.40;;;5.23;;
17618;SDS011;8928;51.678;6.074;2023-11-19T08:09:13;52.60;;;5.10;;
17618;SDS011;8928;51.678;6.074;2023-11-19T08:12:00;34.47;;;4.67;;
17618;SDS011;8928;51.678;6.074;2023-11-19T08:14:47;39.13;;;4.40;;
17618;SDS011;8928;51.678;6.074;2023-11-19T08:17:34;46.87;;;5.30;;
17618;SDS011;8928;51.678;6.074;2023-11-19T08:20:23;42.37;;;4.47;;
17618;SDS011;8928;51.678;6.074;2023-11-19T08:23:10;46.87;;;5.37;;
17618;SDS011;8928;51.678;6.074;2023-11-19T08:25:58;48.30;;;4.77;;
17618;SDS011;8928;51.678;6.074;2023-11-19T08:28:45;48.17;;;5.87;;
17618;SDS011;8928;51.678;6.074;2023-11-19T08:31:32;48.83;;;5.13;;
17618;SDS011;8928;51.678;6.074;2023-11-19T08:34:19;35.13;;;4.13;;
17618;SDS011;8928;51.678;6.074;2023-11-19T08:37:08;46.20;;;4.73;;
17618;SDS011;8928;51.678;6.074;2023-11-19T08:39:55;52.37;;;5.87;;
17618;SDS011;8928;51.678;6.074;2023-11-19T08:42:42;39.70;;;4.70;;
17618;SDS011;8928;51.678;6.074;2023-11-19T08:45:29;43.00;;;5.00;;
17618;SDS011;8928;51.678;6.074;2023-11-19T08:48:17;39.57;;;4.63;;
17618;SDS011;8928;51.678;6.074;2023-11-19T08:51:04;40.40;;;4.77;;
17618;SDS011;8928;51.678;6.074;2023-11-19T08:53:53;40.70;;;4.67;;
17618;SDS011;8928;51.678;6.074;2023-11-19T08:56:41;45.57;;;4.60;;
17618;SDS011;8928;51.678;6.074;2023-11-19T08:59:28;39.57;;;4.80;;
17618;SDS011;8928;51.678;6.074;2023-11-19T09:02:15;41.77;;;4.97;;
17618;SDS011;8928;51.678;6.074;2023-11-19T09:05:04;41.40;;;4.83;;
17618;SDS011;8928;51.678;6.074;2023-11-19T09:07:52;40.87;;;5.03;;
17618;SDS011;8928;51.678;6.074;2023-11-19T09:10:41;40.13;;;4.37;;
17618;SDS011;8928;51.678;6.074;2023-11-19T09:13:28;37.50;;;4.50;;
17618;SDS011;8928;51.678;6.074;2023-11-19T09:16:15;46.23;;;5.10;;
17618;SDS011;8928;51.678;6.074;2023-11-19T09:19:02;42.23;;;4.57;;
17618;SDS011;8928;51.678;6.074;2023-11-19T09:21:49;48.67;;;6.07;;
17618;SDS011;8928;51.678;6.074;2023-11-19T09:24:37;46.43;;;4.93;;
17618;SDS011;8928;51.678;6.074;2023-11-19T09:27:25;47.47;;;5.03;;
17618;SDS011;8928;51.678;6.074;2023-11-19T09:30:13;41.23;;;4.80;;
17618;SDS011;8928;51.678;6.074;2023-11-19T09:33:00;38.20;;;4.70;;
17618;SDS011;8928;51.678;6.074;2023-11-19T09:35:48;44.43;;;5.27;;
17618;SDS011;8928;51.678;6.074;2023-11-19T09:38:36;39.63;;;4.80;;
17618;SDS011;8928;51.678;6.074;2023-11-19T09:41:23;42.33;;;5.27;;
17618;SDS011;8928;51.678;6.074;2023-11-19T09:44:12;44.03;;;5.07;;
17618;SDS011;8928;51.678;6.074;2023-11-19T09:46:59;37.63;;;5.00;;
17618;SDS011;8928;51.678;6.074;2023-11-19T09:49:47;42.67;;;5.07;;
17618;SDS011;8928;51.678;6.074;2023-11-19T09:52:35;33.23;;;4.60;;
17618;SDS011;8928;51.678;6.074;2023-11-19T09:55:22;38.30;;;4.50;;
17618;SDS011;8928;51.678;6.074;2023-11-19T09:58:09;41.63;;;5.30;;
17618;SDS011;8928;51.678;6.074;2023-11-19T10:01:01;38.87;;;4.70;;
17618;SDS011;8928;51.678;6.074;2023-11-19T10:03:52;40.83;;;5.10;;
17618;SDS011;8928;51.678;6.074;2023-11-19T10:06:42;43.87;;;5.83;;
17618;SDS011;8928;51.678;6.074;2023-11-19T10:09:29;40.90;;;4.67;;
17618;SDS011;8928;51.678;6.074;2023-11-19T10:12:17;39.80;;;4.83;;
17618;SDS011;8928;51.678;6.074;2023-11-19T10:15:04;45.60;;;4.60;;
17618;SDS011;8928;51.678;6.074;2023-11-19T10:17:58;39.60;;;4.80;;
17618;SDS011;8928;51.678;6.074;2023-11-19T10:20:45;42.53;;;5.33;;
17618;SDS011;8928;51.678;6.074;2023-11-19T10:23:47;34.77;;;4.57;;
17618;SDS011;8928;51.678;6.074;2023-11-19T10:26:36;38.53;;;4.73;;
17618;SDS011;8928;51.678;6.074;2023-11-19T10:29:23;32.80;;;4.60;;
17618;SDS011;8928;51.678;6.074;2023-11-19T10:32:10;42.47;;;4.63;;
17618;SDS011;8928;51.678;6.074;2023-11-19T10:35:05;39.07;;;4.87;;
17618;SDS011;8928;51.678;6.074;2023-11-19T10:37:53;36.47;;;4.77;;
17618;SDS011;8928;51.678;6.074;2023-11-19T10:40:40;41.67;;;5.13;;
17618;SDS011;8928;51.678;6.074;2023-11-19T10:43:27;35.93;;;5.43;;
17618;SDS011;8928;51.678;6.074;2023-11-19T10:46:14;38.47;;;5.33;;
17618;SDS011;8928;51.678;6.074;2023-11-19T10:49:06;38.70;;;5.47;;
17618;SDS011;8928;51.678;6.074;2023-11-19T10:51:55;37.73;;;5.33;;
17618;SDS011;8928;51.678;6.074;2023-11-19T10:54:44;36.87;;;5.40;;
17618;SDS011;8928;51.678;6.074;2023-11-19T10:57:35;35.93;;;4.90;;
17618;SDS011;8928;51.678;6.074;2023-11-19T11:00:25;36.03;;;5.30;;
17618;SDS011;8928;51.678;6.074;2023-11-19T11:03:16;39.67;;;5.20;;
17618;SDS011;8928;51.678;6.074;2023-11-19T11:06:04;33.30;;;4.73;;
17618;SDS011;8928;51.678;6.074;2023-11-19T11:08:53;35.90;;;4.50;;
17618;SDS011;8928;51.678;6.074;2023-11-19T11:11:41;37.87;;;4.97;;
17618;SDS011;8928;51.678;6.074;2023-11-19T11:14:33;36.40;;;4.50;;
17618;SDS011;8928;51.678;6.074;2023-11-19T11:17:25;35.47;;;4.43;;
17618;SDS011;8928;51.678;6.074;2023-11-19T11:20:17;29.47;;;4.33;;
17618;SDS011;8928;51.678;6.074;2023-11-19T11:26:57;33.60;;;4.57;;
17618;SDS011;8928;51.678;6.074;2023-11-19T11:29:56;34.20;;;4.70;;
17618;SDS011;8928;51.678;6.074;2023-11-19T11:32:54;33.57;;;4.50;;
17618;SDS011;8928;51.678;6.074;2023-11-19T11:35:53;29.70;;;4.00;;
17618;SDS011;8928;51.678;6.074;2023-11-19T11:38:50;30.43;;;4.07;;
17618;SDS011;8928;51.678;6.074;2023-11-19T11:41:38;27.97;;;4.50;;
17618;SDS011;8928;51.678;6.074;2023-11-19T11:44:40;29.23;;;4.00;;
17618;SDS011;8928;51.678;6.074;2023-11-19T11:50:58;28.47;;;3.97;;
17618;SDS011;8928;51.678;6.074;2023-11-19T11:53:45;33.50;;;4.60;;
17618;SDS011;8928;51.678;6.074;2023-11-19T11:56:36;31.53;;;4.30;;
17618;SDS011;8928;51.678;6.074;2023-11-19T11:59:24;27.77;;;3.97;;
17618;SDS011;8928;51.678;6.074;2023-11-19T12:02:13;33.43;;;3.93;;
17618;SDS011;8928;51.678;6.074;2023-11-19T12:05:01;28.43;;;3.87;;
17618;SDS011;8928;51.678;6.074;2023-11-19T12:07:54;29.30;;;3.77;;
17618;SDS011;8928;51.678;6.074;2023-11-19T12:10:44;25.70;;;3.70;;
17618;SDS011;8928;51.678;6.074;2023-11-19T12:16:43;27.13;;;3.93;;
17618;SDS011;8928;51.678;6.074;2023-11-19T12:19:32;29.27;;;3.67;;
17618;SDS011;8928;51.678;6.074;2023-11-19T12:22:19;27.13;;;3.60;;
17618;SDS011;8928;51.678;6.074;2023-11-19T12:25:07;22.03;;;3.40;;
17618;SDS011;8928;51.678;6.074;2023-11-19T12:27:55;22.20;;;3.37;;
17618;SDS011;8928;51.678;6.074;2023-11-19T12:30:42;23.73;;;3.40;;
17618;SDS011;8928;51.678;6.074;2023-11-19T12:33:30;25.80;;;3.90;;
17618;SDS011;8928;51.678;6.074;2023-11-19T12:36:19;30.30;;;3.87;;
17618;SDS011;8928;51.678;6.074;2023-11-19T12:39:06;25.53;;;3.30;;
17618;SDS011;8928;51.678;6.074;2023-11-19T12:41:53;26.20;;;3.30;;
17618;SDS011;8928;51.678;6.074;2023-11-19T12:44:53;27.80;;;3.53;;
17618;SDS011;8928;51.678;6.074;2023-11-19T12:47:41;33.13;;;4.00;;
17618;SDS011;8928;51.678;6.074;2023-11-19T12:50:29;27.90;;;3.43;;
17618;SDS011;8928;51.678;6.074;2023-11-19T12:53:17;28.47;;;4.20;;
17618;SDS011;8928;51.678;6.074;2023-11-19T12:56:07;28.10;;;3.60;;
17618;SDS011;8928;51.678;6.074;2023-11-19T12:58:54;34.43;;;3.80;;
17618;SDS011;8928;51.678;6.074;2023-11-19T13:01:41;32.17;;;3.50;;
17618;SDS011;8928;51.678;6.074;2023-11-19T13:04:40;25.43;;;3.33;;
17618;SDS011;8928;51.678;6.074;2023-11-19T13:07:28;30.33;;;3.90;;
17618;SDS011;8928;51.678;6.074;2023-11-19T13:10:16;21.70;;;3.73;;
17618;SDS011;8928;51.678;6.074;2023-11-19T13:13:04;25.40;;;3.70;;
17618;SDS011;8928;51.678;6.074;2023-11-19T13:15:53;30.27;;;3.70;;
17618;SDS011;8928;51.678;6.074;2023-11-19T13:18:48;25.17;;;3.30;;
17618;SDS011;8928;51.678;6.074;2023-11-19T13:21:35;31.80;;;4.03;;
17618;SDS011;8928;51.678;6.074;2023-11-19T13:24:22;25.97;;;3.60;;
17618;SDS011;8928;51.678;6.074;2023-11-19T13:27:10;23.43;;;3.43;;
17618;SDS011;8928;51.678;6.074;2023-11-19T13:29:57;27.17;;;3.83;;
17618;SDS011;8928;51.678;6.074;2023-11-19T13:32:44;27.77;;;3.73;;
17618;SDS011;8928;51.678;6.074;2023-11-19T13:35:32;25.03;;;3.80;;
17618;SDS011;8928;51.678;6.074;2023-11-19T13:38:19;28.27;;;3.50;;
17618;SDS011;8928;51.678;6.074;2023-11-19T13:41:06;26.43;;;3.63;;
17618;SDS011;8928;51.678;6.074;2023-11-19T13:43:56;35.63;;;4.60;;
17618;SDS011;8928;51.678;6.074;2023-11-19T13:46:44;30.67;;;4.10;;
17618;SDS011;8928;51.678;6.074;2023-11-19T13:49:31;27.30;;;3.70;;
17618;SDS011;8928;51.678;6.074;2023-11-19T13:52:18;25.40;;;3.20;;
17618;SDS011;8928;51.678;6.074;2023-11-19T13:55:06;27.30;;;3.60;;
17618;SDS011;8928;51.678;6.074;2023-11-19T13:57:54;28.13;;;3.77;;
17618;SDS011;8928;51.678;6.074;2023-11-19T14:00:42;27.27;;;3.17;;
17618;SDS011;8928;51.678;6.074;2023-11-19T14:03:29;28.00;;;3.93;;
17618;SDS011;8928;51.678;6.074;2023-11-19T14:06:16;36.40;;;4.10;;
17618;SDS011;8928;51.678;6.074;2023-11-19T14:09:03;30.83;;;3.50;;
17618;SDS011;8928;51.678;6.074;2023-11-19T14:11:53;25.03;;;3.40;;
17618;SDS011;8928;51.678;6.074;2023-11-19T14:14:40;26.67;;;3.40;;
17618;SDS011;8928;51.678;6.074;2023-11-19T14:17:28;24.07;;;3.30;;
17618;SDS011;8928;51.678;6.074;2023-11-19T14:20:15;31.23;;;3.50;;
17618;SDS011;8928;51.678;6.074;2023-11-19T14:23:03;29.60;;;3.40;;
17618;SDS011;8928;51.678;6.074;2023-11-19T14:25:50;24.37;;;3.47;;
17618;SDS011;8928;51.678;6.074;2023-11-19T14:28:37;24.07;;;3.43;;
17618;SDS011;8928;51.678;6.074;2023-11-19T14:31:27;27.07;;;3.40;;
17618;SDS011;8928;51.678;6.074;2023-11-19T14:34:15;29.63;;;3.63;;
17618;SDS011;8928;51.678;6.074;2023-11-19T14:37:02;29.53;;;3.67;;
17618;SDS011;8928;51.678;6.074;2023-11-19T14:39:50;24.03;;;3.23;;
17618;SDS011;8928;51.678;6.074;2023-11-19T14:42:37;30.90;;;3.87;;
17618;SDS011;8928;51.678;6.074;2023-11-19T14:45:24;25.73;;;2.93;;
17618;SDS011;8928;51.678;6.074;2023-11-19T14:48:12;25.00;;;3.63;;
17618;SDS011;8928;51.678;6.074;2023-11-19T14:51:01;27.67;;;3.43;;
17618;SDS011;8928;51.678;6.074;2023-11-19T14:53:48;22.27;;;3.43;;
17618;SDS011;8928;51.678;6.074;2023-11-19T14:56:35;26.93;;;3.93;;
17618;SDS011;8928;51.678;6.074;2023-11-19T14:59:24;30.17;;;3.70;;
17618;SDS011;8928;51.678;6.074;2023-11-19T15:02:11;28.83;;;3.73;;
17618;SDS011;8928;51.678;6.074;2023-11-19T15:04:58;30.70;;;3.80;;
17618;SDS011;8928;51.678;6.074;2023-11-19T15:07:46;24.57;;;3.93;;
17618;SDS011;8928;51.678;6.074;2023-11-19T15:10:34;29.57;;;4.83;;
17618;SDS011;8928;51.678;6.074;2023-11-19T15:13:21;20.90;;;3.50;;
17618;SDS011;8928;51.678;6.074;2023-11-19T15:16:08;23.53;;;3.37;;
17618;SDS011;8928;51.678;6.074;2023-11-19T15:18:57;25.10;;;3.80;;
17618;SDS011;8928;51.678;6.074;2023-11-19T15:21:45;18.83;;;3.17;;
17618;SDS011;8928;51.678;6.074;2023-11-19T15:24:34;21.77;;;3.97;;
17618;SDS011;8928;51.678;6.074;2023-11-19T15:27:24;24.70;;;3.40;;
17618;SDS011;8928;51.678;6.074;2023-11-19T15:30:12;23.20;;;3.13;;
17618;SDS011;8928;51.678;6.074;2023-11-19T15:32:59;25.30;;;3.70;;
17618;SDS011;8928;51.678;6.074;2023-11-19T15:35:46;25.23;;;3.20;;
17618;SDS011;8928;51.678;6.074;2023-11-19T15:38:33;23.40;;;3.80;;
17618;SDS011;8928;51.678;6.074;2023-11-19T15:41:21;25.40;;;3.57;;
17618;SDS011;8928;51.678;6.074;2023-11-19T15:44:08;21.57;;;3.37;;
17618;SDS011;8928;51.678;6.074;2023-11-19T15:46:56;21.50;;;3.20;;
17618;SDS011;8928;51.678;6.074;2023-11-19T15:49:44;28.23;;;4.47;;
17618;SDS011;8928;51.678;6.074;2023-11-19T15:52:33;22.97;;;3.60;;
17618;SDS011;8928;51.678;6.074;2023-11-19T15:55:20;21.57;;;3.30;;
17618;SDS011;8928;51.678;6.074;2023-11-19T15:58:09;27.93;;;3.63;;
17618;SDS011;8928;51.678;6.074;2023-11-19T16:00:56;21.17;;;2.87;;
17618;SDS011;8928;51.678;6.074;2023-11-19T16:03:43;24.40;;;3.23;;
17618;SDS011;8928;51.678;6.074;2023-11-19T16:06:30;25.23;;;3.63;;
17618;SDS011;8928;51.678;6.074;2023-11-19T16:09:17;29.80;;;3.87;;
17618;SDS011;8928;51.678;6.074;2023-11-19T16:12:07;28.10;;;3.50;;
17618;SDS011;8928;51.678;6.074;2023-11-19T16:14:55;22.63;;;3.40;;
17618;SDS011;8928;51.678;6.074;2023-11-19T16:17:43;27.77;;;3.50;;
17618;SDS011;8928;51.678;6.074;2023-11-19T16:20:30;20.27;;;3.27;;
17618;SDS011;8928;51.678;6.074;2023-11-19T16:23:19;24.17;;;3.30;;
17618;SDS011;8928;51.678;6.074;2023-11-19T16:26:06;24.23;;;3.53;;
17618;SDS011;8928;51.678;6.074;2023-11-19T16:28:53;19.67;;;2.83;;
17618;SDS011;8928;51.678;6.074;2023-11-19T16:31:43;18.63;;;2.97;;
17618;SDS011;8928;51.678;6.074;2023-11-19T16:34:30;21.57;;;3.30;;
17618;SDS011;8928;51.678;6.074;2023-11-19T16:37:19;17.50;;;2.80;;
17618;SDS011;8928;51.678;6.074;2023-11-19T16:40:07;20.73;;;2.90;;
17618;SDS011;8928;51.678;6.074;2023-11-19T16:42:57;28.27;;;3.53;;
17618;SDS011;8928;51.678;6.074;2023-11-19T16:45:44;23.07;;;3.47;;
17618;SDS011;8928;51.678;6.074;2023-11-19T16:48:32;26.07;;;3.67;;
17618;SDS011;8928;51.678;6.074;2023-11-19T16:51:19;29.20;;;3.67;;
17618;SDS011;8928;51.678;6.074;2023-11-19T16:54:06;25.80;;;3.47;;
17618;SDS011;8928;51.678;6.074;2023-11-19T16:56:53;26.37;;;3.40;;
17618;SDS011;8928;51.678;6.074;2023-11-19T16:59:40;26.23;;;3.60;;
17618;SDS011;8928;51.678;6.074;2023-11-19T17:02:27;27.37;;;3.60;;